sensor_id;sensor_type;location;lat;lon;timestamp;pressure;altitude;pressure_sealevel;temperature;humidity
80682;BME280;70045;40.200;44.582;2023-08-01T00:01:12;85924.81;;;23.42;34.49
80682;BME280;70045;40.200;44.582;2023-08-01T00:03:38;85920.50;;;23.39;34.67
80682;BME280;70045;40.200;44.582;2023-08-01T00:06:03;85919.09;;;23.33;34.54
80682;BME280;70045;40.200;44.582;2023-08-01T00:08:29;85938.50;;;23.46;34.24
80682;BME280;70045;40.200;44.582;2023-08-01T00:10:57;85929.41;;;23.36;34.94
80682;BME280;70045;40.200;44.582;2023-08-01T00:13:22;85930.38;;;23.39;34.69
80682;BME280;70045;40.200;44.582;2023-08-01T00:15:48;85909.47;;;23.29;34.98
80682;BME280;70045;40.200;44.582;2023-08-01T00:18:13;85945.25;;;23.47;34.42
80682;BME280;70045;40.200;44.582;2023-08-01T00:20:39;85926.50;;;23.45;34.90
80682;BME280;70045;40.200;44.582;2023-08-01T00:23:07;85928.19;;;23.43;34.71
80682;BME280;70045;40.200;44.582;2023-08-01T00:25:32;85931.53;;;23.43;34.52
80682;BME280;70045;40.200;44.582;2023-08-01T00:27:58;85935.84;;;23.46;34.98
80682;BME280;70045;40.200;44.582;2023-08-01T00:30:23;85932.97;;;23.44;34.28
80682;BME280;70045;40.200;44.582;2023-08-01T00:32:48;85937.06;;;23.45;35.12
80682;BME280;70045;40.200;44.582;2023-08-01T00:35:17;85931.03;;;23.45;34.88
80682;BME280;70045;40.200;44.582;2023-08-01T00:37:42;85927.47;;;23.42;34.55
80682;BME280;70045;40.200;44.582;2023-08-01T00:40:08;85926.75;;;23.42;34.26
80682;BME280;70045;40.200;44.582;2023-08-01T00:42:36;85930.59;;;23.41;35.07
80682;BME280;70045;40.200;44.582;2023-08-01T00:45:02;85932.78;;;23.31;34.71
80682;BME280;70045;40.200;44.582;2023-08-01T00:47:30;85933.78;;;23.28;35.54
80682;BME280;70045;40.200;44.582;2023-08-01T00:49:55;85940.75;;;23.25;34.89
80682;BME280;70045;40.200;44.582;2023-08-01T00:52:21;85941.00;;;23.22;35.73
80682;BME280;70045;40.200;44.582;2023-08-01T00:54:47;85944.16;;;23.15;35.40
80682;BME280;70045;40.200;44.582;2023-08-01T00:57:13;85941.78;;;23.11;35.55
80682;BME280;70045;40.200;44.582;2023-08-01T00:59:42;85941.78;;;23.11;35.45
80682;BME280;70045;40.200;44.582;2023-08-01T01:02:07;85949.22;;;23.12;34.76
80682;BME280;70045;40.200;44.582;2023-08-01T01:04:33;85956.66;;;23.14;35.01
80682;BME280;70045;40.200;44.582;2023-08-01T01:07:03;85954.50;;;23.12;35.62
80682;BME280;70045;40.200;44.582;2023-08-01T01:09:31;85962.44;;;23.12;35.32
80682;BME280;70045;40.200;44.582;2023-08-01T01:11:59;85960.50;;;23.13;35.61
80682;BME280;70045;40.200;44.582;2023-08-01T01:14:28;85956.16;;;23.16;35.78
80682;BME280;70045;40.200;44.582;2023-08-01T01:16:54;85953.78;;;23.12;34.88
80682;BME280;70045;40.200;44.582;2023-08-01T01:19:20;85959.06;;;23.12;35.07
80682;BME280;70045;40.200;44.582;2023-08-01T01:21:46;85961.47;;;23.10;35.48
80682;BME280;70045;40.200;44.582;2023-08-01T01:24:16;85963.19;;;23.07;35.13
80682;BME280;70045;40.200;44.582;2023-08-01T01:26:43;85966.53;;;23.02;35.42
80682;BME280;70045;40.200;44.582;2023-08-01T01:29:09;85979.97;;;23.04;35.20
80682;BME280;70045;40.200;44.582;2023-08-01T01:31:36;85973.00;;;23.07;35.37
80682;BME280;70045;40.200;44.582;2023-08-01T01:34:02;85963.41;;;23.04;35.30
80682;BME280;70045;40.200;44.582;2023-08-01T01:36:30;85965.56;;;23.00;36.07
80682;BME280;70045;40.200;44.582;2023-08-01T01:38:56;85977.09;;;22.97;35.68
80682;BME280;70045;40.200;44.582;2023-08-01T01:41:21;85971.31;;;22.98;35.19
80682;BME280;70045;40.200;44.582;2023-08-01T01:43:47;85977.34;;;22.99;35.72
80682;BME280;70045;40.200;44.582;2023-08-01T01:46:12;85977.84;;;22.97;35.94
80682;BME280;70045;40.200;44.582;2023-08-01T01:48:40;85980.72;;;22.93;36.33
80682;BME280;70045;40.200;44.582;2023-08-01T01:51:06;85955.03;;;22.77;35.97
80682;BME280;70045;40.200;44.582;2023-08-01T01:53:31;85989.38;;;22.94;35.97
80682;BME280;70045;40.200;44.582;2023-08-01T01:55:57;85984.34;;;22.90;36.04
80682;BME280;70045;40.200;44.582;2023-08-01T01:58:22;85987.22;;;22.87;36.12
80682;BME280;70045;40.200;44.582;2023-08-01T02:00:50;85998.50;;;22.87;37.19
80682;BME280;70045;40.200;44.582;2023-08-01T02:03:16;86000.66;;;22.89;36.24
80682;BME280;70045;40.200;44.582;2023-08-01T02:05:41;85990.13;;;22.78;36.00
80682;BME280;70045;40.200;44.582;2023-08-01T02:08:07;86009.06;;;22.93;36.00
80682;BME280;70045;40.200;44.582;2023-08-01T02:10:32;85987.47;;;22.78;36.97
80682;BME280;70045;40.200;44.582;2023-08-01T02:13:01;86011.50;;;22.85;37.80
80682;BME280;70045;40.200;44.582;2023-08-01T02:15:26;86012.47;;;22.77;37.16
80682;BME280;70045;40.200;44.582;2023-08-01T02:17:51;86015.09;;;22.77;36.93
80682;BME280;70045;40.200;44.582;2023-08-01T02:20:17;86016.28;;;22.75;38.10
80682;BME280;70045;40.200;44.582;2023-08-01T02:22:42;86015.56;;;22.75;37.80
80682;BME280;70045;40.200;44.582;2023-08-01T02:25:11;86018.47;;;22.71;38.65
80682;BME280;70045;40.200;44.582;2023-08-01T02:27:36;86007.44;;;22.67;37.71
80682;BME280;70045;40.200;44.582;2023-08-01T02:30:01;86009.56;;;22.69;38.08
80682;BME280;70045;40.200;44.582;2023-08-01T02:32:27;86026.16;;;22.69;38.17
80682;BME280;70045;40.200;44.582;2023-08-01T02:34:52;86019.44;;;22.68;38.30
80682;BME280;70045;40.200;44.582;2023-08-01T02:37:20;86023.50;;;22.75;38.71
80682;BME280;70045;40.200;44.582;2023-08-01T02:39:46;86032.16;;;22.81;37.86
80682;BME280;70045;40.200;44.582;2023-08-01T02:42:11;86033.84;;;22.79;37.33
80682;BME280;70045;40.200;44.582;2023-08-01T02:44:37;86034.31;;;22.71;37.48
80682;BME280;70045;40.200;44.582;2023-08-01T02:47:02;86038.66;;;22.74;38.90
80682;BME280;70045;40.200;44.582;2023-08-01T02:49:31;86038.88;;;22.82;38.25
80682;BME280;70045;40.200;44.582;2023-08-01T02:51:56;86040.09;;;22.87;37.83
80682;BME280;70045;40.200;44.582;2023-08-01T02:54:22;86038.88;;;22.88;37.62
80682;BME280;70045;40.200;44.582;2023-08-01T02:56:47;86038.38;;;22.89;37.58
80682;BME280;70045;40.200;44.582;2023-08-01T02:59:12;86044.66;;;22.92;37.57
80682;BME280;70045;40.200;44.582;2023-08-01T03:01:41;86046.34;;;22.95;37.67
80682;BME280;70045;40.200;44.582;2023-08-01T03:04:06;86045.34;;;22.98;37.44
80682;BME280;70045;40.200;44.582;2023-08-01T03:06:32;86040.78;;;22.93;37.67
80682;BME280;70045;40.200;44.582;2023-08-01T03:08:58;86060.47;;;23.03;36.94
80682;BME280;70045;40.200;44.582;2023-08-01T03:11:24;86054.50;;;23.08;37.62
80682;BME280;70045;40.200;44.582;2023-08-01T03:13:52;86052.34;;;23.07;37.95
80682;BME280;70045;40.200;44.582;2023-08-01T03:16:18;86060.75;;;23.17;37.78
80682;BME280;70045;40.200;44.582;2023-08-01T03:18:43;86059.03;;;23.19;38.42
80682;BME280;70045;40.200;44.582;2023-08-01T03:21:09;86062.16;;;23.29;37.49
80682;BME280;70045;40.200;44.582;2023-08-01T03:23:34;86064.78;;;23.40;37.96
80682;BME280;70045;40.200;44.582;2023-08-01T03:26:03;86062.38;;;23.42;37.53
80682;BME280;70045;40.200;44.582;2023-08-01T03:28:28;86065.22;;;23.50;37.13
80682;BME280;70045;40.200;44.582;2023-08-01T03:30:54;86063.78;;;23.55;36.70
80682;BME280;70045;40.200;44.582;2023-08-01T03:33:20;86057.50;;;23.63;36.82
80682;BME280;70045;40.200;44.582;2023-08-01T03:35:45;86065.91;;;23.73;36.81
80682;BME280;70045;40.200;44.582;2023-08-01T03:38:14;86062.00;;;23.80;36.05
80682;BME280;70045;40.200;44.582;2023-08-01T03:40:39;86065.09;;;23.95;36.23
80682;BME280;70045;40.200;44.582;2023-08-01T03:43:05;86060.75;;;24.03;35.66
80682;BME280;70045;40.200;44.582;2023-08-01T03:45:30;86057.09;;;24.12;35.37
80682;BME280;70045;40.200;44.582;2023-08-01T03:47:56;86064.28;;;24.17;35.63
80682;BME280;70045;40.200;44.582;2023-08-01T03:50:24;86057.97;;;24.26;35.15
80682;BME280;70045;40.200;44.582;2023-08-01T03:52:50;86063.97;;;24.32;34.61
80682;BME280;70045;40.200;44.582;2023-08-01T03:55:15;86067.13;;;24.31;33.88
80682;BME280;70045;40.200;44.582;2023-08-01T03:57:41;86068.25;;;24.41;34.10
80682;BME280;70045;40.200;44.582;2023-08-01T04:00:06;86060.72;;;24.51;34.21
80682;BME280;70045;40.200;44.582;2023-08-01T04:02:35;86054.50;;;24.48;34.09
80682;BME280;70045;40.200;44.582;2023-08-01T04:05:00;86063.59;;;24.58;33.48
80682;BME280;70045;40.200;44.582;2023-08-01T04:07:26;86067.66;;;24.65;33.74
80682;BME280;70045;40.200;44.582;2023-08-01T04:09:51;86069.78;;;24.67;33.64
80682;BME280;70045;40.200;44.582;2023-08-01T04:12:17;86063.28;;;24.68;33.65
80682;BME280;70045;40.200;44.582;2023-08-01T04:14:45;86067.84;;;24.73;32.99
80682;BME280;70045;40.200;44.582;2023-08-01T04:17:10;86064.00;;;24.74;32.82
80682;BME280;70045;40.200;44.582;2023-08-01T04:19:36;86068.53;;;24.79;32.54
80682;BME280;70045;40.200;44.582;2023-08-01T04:22:01;86063.44;;;24.81;32.65
80682;BME280;70045;40.200;44.582;2023-08-01T04:24:27;86063.19;;;24.85;32.65
80682;BME280;70045;40.200;44.582;2023-08-01T04:26:55;86071.09;;;24.90;32.37
80682;BME280;70045;40.200;44.582;2023-08-01T04:29:20;86063.56;;;24.94;32.80
80682;BME280;70045;40.200;44.582;2023-08-01T04:31:46;86072.72;;;24.99;32.78
80682;BME280;70045;40.200;44.582;2023-08-01T04:34:11;86063.56;;;24.94;32.51
80682;BME280;70045;40.200;44.582;2023-08-01T04:36:36;86078.44;;;25.09;32.69
80682;BME280;70045;40.200;44.582;2023-08-01T04:39:05;86075.22;;;25.16;32.54
80682;BME280;70045;40.200;44.582;2023-08-01T04:41:30;86074.69;;;25.23;32.84
80682;BME280;70045;40.200;44.582;2023-08-01T04:43:56;86075.16;;;25.27;32.17
80682;BME280;70045;40.200;44.582;2023-08-01T04:46:21;86073.44;;;25.30;32.16
80682;BME280;70045;40.200;44.582;2023-08-01T04:48:47;86075.06;;;25.39;32.11
80682;BME280;70045;40.200;44.582;2023-08-01T04:51:15;86070.19;;;25.43;31.48
80682;BME280;70045;40.200;44.582;2023-08-01T04:53:40;86051.28;;;25.27;31.88
80682;BME280;70045;40.200;44.582;2023-08-01T04:56:06;86078.56;;;25.52;31.83
80682;BME280;70045;40.200;44.582;2023-08-01T04:58:31;86063.28;;;25.59;31.87
80682;BME280;70045;40.200;44.582;2023-08-01T05:00:56;86070.91;;;25.68;31.75
80682;BME280;70045;40.200;44.582;2023-08-01T05:03:25;86070.97;;;25.62;31.58
80682;BME280;70045;40.200;44.582;2023-08-01T05:05:50;86068.25;;;25.68;31.89
80682;BME280;70045;40.200;44.582;2023-08-01T05:08:16;86075.88;;;25.77;31.64
80682;BME280;70045;40.200;44.582;2023-08-01T05:10:41;86070.50;;;25.83;31.80
80682;BME280;70045;40.200;44.582;2023-08-01T05:13:06;86074.25;;;25.93;31.55
80682;BME280;70045;40.200;44.582;2023-08-01T05:15:35;86077.13;;;26.01;30.61
80682;BME280;70045;40.200;44.582;2023-08-01T05:18:00;86078.69;;;26.09;31.33
80682;BME280;70045;40.200;44.582;2023-08-01T05:20:26;86081.28;;;26.15;31.54
80682;BME280;70045;40.200;44.582;2023-08-01T05:22:51;86076.91;;;26.18;31.38
80682;BME280;70045;40.200;44.582;2023-08-01T05:25:16;86080.34;;;26.12;30.98
80682;BME280;70045;40.200;44.582;2023-08-01T05:27:45;86081.22;;;26.21;31.25
80682;BME280;70045;40.200;44.582;2023-08-01T05:30:10;86072.38;;;26.12;31.30
80682;BME280;70045;40.200;44.582;2023-08-01T05:32:36;86081.13;;;26.07;30.82
80682;BME280;70045;40.200;44.582;2023-08-01T05:35:01;86079.53;;;25.99;31.39
80682;BME280;70045;40.200;44.582;2023-08-01T05:37:27;86072.38;;;26.12;31.33
80682;BME280;70045;40.200;44.582;2023-08-01T05:39:55;86072.81;;;26.17;30.90
80682;BME280;70045;40.200;44.582;2023-08-01T05:42:20;86069.81;;;26.26;31.02
80682;BME280;70045;40.200;44.582;2023-08-01T05:44:46;86073.53;;;26.36;30.81
80682;BME280;70045;40.200;44.582;2023-08-01T05:47:11;86068.00;;;26.53;30.93
80682;BME280;70045;40.200;44.582;2023-08-01T05:49:37;86073.53;;;26.55;30.80
80682;BME280;70045;40.200;44.582;2023-08-01T05:52:05;86074.47;;;26.58;29.94
80682;BME280;70045;40.200;44.582;2023-08-01T05:54:31;86067.50;;;26.55;29.96
80682;BME280;70045;40.200;44.582;2023-08-01T05:56:56;86067.94;;;26.59;30.16
80682;BME280;70045;40.200;44.582;2023-08-01T05:59:22;86067.66;;;26.81;29.92
80682;BME280;70045;40.200;44.582;2023-08-01T06:01:47;86070.22;;;26.87;30.32
80682;BME280;70045;40.200;44.582;2023-08-01T06:04:16;86071.25;;;26.84;29.74
80682;BME280;70045;40.200;44.582;2023-08-01T06:06:41;86075.88;;;26.97;29.73
80682;BME280;70045;40.200;44.582;2023-08-01T06:09:06;86070.94;;;26.88;29.49
80682;BME280;70045;40.200;44.582;2023-08-01T06:11:32;86066.75;;;26.92;29.46
80682;BME280;70045;40.200;44.582;2023-08-01T06:13:57;86069.34;;;26.98;29.22
80682;BME280;70045;40.200;44.582;2023-08-01T06:16:26;86065.31;;;27.23;29.56
80682;BME280;70045;40.200;44.582;2023-08-01T06:18:51;86063.53;;;27.32;29.34
80682;BME280;70045;40.200;44.582;2023-08-01T06:21:17;86069.69;;;27.40;29.05
80682;BME280;70045;40.200;44.582;2023-08-01T06:23:42;86065.78;;;27.41;29.39
80682;BME280;70045;40.200;44.582;2023-08-01T06:26:07;86067.47;;;27.57;29.02
80682;BME280;70045;40.200;44.582;2023-08-01T06:28:36;86059.16;;;27.61;29.10
80682;BME280;70045;40.200;44.582;2023-08-01T06:31:01;86066.84;;;27.78;28.65
80682;BME280;70045;40.200;44.582;2023-08-01T06:33:27;86066.03;;;27.83;29.19
80682;BME280;70045;40.200;44.582;2023-08-01T06:35:52;86061.97;;;27.95;29.00
80682;BME280;70045;40.200;44.582;2023-08-01T06:38:17;86052.34;;;27.92;28.47
80682;BME280;70045;40.200;44.582;2023-08-01T06:40:48;86044.63;;;27.89;28.56
80682;BME280;70045;40.200;44.582;2023-08-01T06:43:13;86064.00;;;27.76;29.17
80682;BME280;70045;40.200;44.582;2023-08-01T06:45:39;86065.41;;;27.64;29.02
80682;BME280;70045;40.200;44.582;2023-08-01T06:48:04;86065.44;;;27.90;28.90
80682;BME280;70045;40.200;44.582;2023-08-01T06:50:30;86066.88;;;27.91;28.85
80682;BME280;70045;40.200;44.582;2023-08-01T06:52:58;86062.38;;;28.13;28.47
80682;BME280;70045;40.200;44.582;2023-08-01T06:55:23;86065.94;;;28.29;28.86
80682;BME280;70045;40.200;44.582;2023-08-01T06:57:49;86045.09;;;28.41;28.48
80682;BME280;70045;40.200;44.582;2023-08-01T07:00:38;86057.56;;;28.72;28.26
80682;BME280;70045;40.200;44.582;2023-08-01T07:03:06;86061.59;;;28.52;27.51
80682;BME280;70045;40.200;44.582;2023-08-01T07:05:31;86049.19;;;28.42;27.85
80682;BME280;70045;40.200;44.582;2023-08-01T07:07:56;86048.72;;;28.30;27.94
80682;BME280;70045;40.200;44.582;2023-08-01T07:10:22;86054.75;;;28.44;28.06
80682;BME280;70045;40.200;44.582;2023-08-01T07:12:47;86050.63;;;28.43;28.24
80682;BME280;70045;40.200;44.582;2023-08-01T07:15:16;86051.72;;;28.61;27.55
80682;BME280;70045;40.200;44.582;2023-08-01T07:17:41;86048.38;;;28.81;27.55
80682;BME280;70045;40.200;44.582;2023-08-01T07:20:07;86044.97;;;28.94;27.85
80682;BME280;70045;40.200;44.582;2023-08-01T07:22:39;86039.75;;;29.09;27.46
80682;BME280;70045;40.200;44.582;2023-08-01T07:25:04;86048.88;;;29.35;27.14
80682;BME280;70045;40.200;44.582;2023-08-01T07:27:33;86039.84;;;29.38;26.61
80682;BME280;70045;40.200;44.582;2023-08-01T07:29:59;86046.16;;;29.48;26.64
80682;BME280;70045;40.200;44.582;2023-08-01T07:32:25;86043.34;;;29.54;26.48
80682;BME280;70045;40.200;44.582;2023-08-01T07:34:50;86039.59;;;29.50;26.37
80682;BME280;70045;40.200;44.582;2023-08-01T07:37:16;86036.28;;;29.36;26.53
80682;BME280;70045;40.200;44.582;2023-08-01T07:39:44;86029.75;;;29.44;26.43
80682;BME280;70045;40.200;44.582;2023-08-01T07:42:10;86037.72;;;29.65;26.74
80682;BME280;70045;40.200;44.582;2023-08-01T07:44:35;86026.44;;;29.80;26.54
80682;BME280;70045;40.200;44.582;2023-08-01T07:47:00;86024.00;;;29.90;26.58
80682;BME280;70045;40.200;44.582;2023-08-01T07:49:26;86027.28;;;30.04;26.41
80682;BME280;70045;40.200;44.582;2023-08-01T07:51:54;86026.59;;;30.11;26.45
80682;BME280;70045;40.200;44.582;2023-08-01T07:54:20;86023.44;;;30.20;26.32
80682;BME280;70045;40.200;44.582;2023-08-01T07:56:45;86015.72;;;30.09;26.56
80682;BME280;70045;40.200;44.582;2023-08-01T07:59:10;86010.91;;;30.08;25.88
80682;BME280;70045;40.200;44.582;2023-08-01T08:01:36;86020.56;;;30.18;26.51
80682;BME280;70045;40.200;44.582;2023-08-01T08:04:04;86011.00;;;30.31;26.10
80682;BME280;70045;40.200;44.582;2023-08-01T08:06:30;86022.84;;;30.43;26.12
80682;BME280;70045;40.200;44.582;2023-08-01T08:08:55;86021.63;;;30.52;25.96
80682;BME280;70045;40.200;44.582;2023-08-01T08:11:21;86014.16;;;30.50;25.73
80682;BME280;70045;40.200;44.582;2023-08-01T08:13:46;86007.19;;;30.47;25.71
80682;BME280;70045;40.200;44.582;2023-08-01T08:16:15;86016.06;;;30.42;25.93
80682;BME280;70045;40.200;44.582;2023-08-01T08:18:40;86016.44;;;30.46;26.04
80682;BME280;70045;40.200;44.582;2023-08-01T08:21:06;86006.78;;;30.35;26.16
80682;BME280;70045;40.200;44.582;2023-08-01T08:23:31;86005.03;;;30.53;25.72
80682;BME280;70045;40.200;44.582;2023-08-01T08:25:57;86015.09;;;30.68;25.73
80682;BME280;70045;40.200;44.582;2023-08-01T08:28:30;86006.16;;;30.66;25.66
80682;BME280;70045;40.200;44.582;2023-08-01T08:30:55;86003.13;;;30.69;25.73
80682;BME280;70045;40.200;44.582;2023-08-01T08:33:21;85995.88;;;30.85;25.27
80682;BME280;70045;40.200;44.582;2023-08-01T08:35:47;86004.63;;;30.93;25.36
80682;BME280;70045;40.200;44.582;2023-08-01T08:38:12;85997.16;;;31.00;25.29
80682;BME280;70045;40.200;44.582;2023-08-01T08:40:45;85989.13;;;31.15;25.01
80682;BME280;70045;40.200;44.582;2023-08-01T08:43:15;85988.97;;;31.28;24.79
80682;BME280;70045;40.200;44.582;2023-08-01T08:45:43;85990.22;;;31.43;25.25
80682;BME280;70045;40.200;44.582;2023-08-01T08:48:13;85985.38;;;31.64;24.26
80682;BME280;70045;40.200;44.582;2023-08-01T08:50:45;85982.19;;;31.74;24.35
80682;BME280;70045;40.200;44.582;2023-08-01T08:53:11;85984.84;;;31.81;24.21
80682;BME280;70045;40.200;44.582;2023-08-01T08:55:37;85981.97;;;31.87;24.48
80682;BME280;70045;40.200;44.582;2023-08-01T08:58:03;85974.44;;;31.93;24.16
80682;BME280;70045;40.200;44.582;2023-08-01T09:00:30;85979.97;;;31.95;24.13
80682;BME280;70045;40.200;44.582;2023-08-01T09:02:58;85979.81;;;32.08;23.73
80682;BME280;70045;40.200;44.582;2023-08-01T09:05:27;85966.91;;;32.15;23.52
80682;BME280;70045;40.200;44.582;2023-08-01T09:07:55;85921.31;;;32.15;23.25
80682;BME280;70045;40.200;44.582;2023-08-01T09:10:22;85978.31;;;33.04;23.15
80682;BME280;70045;40.200;44.582;2023-08-01T09:12:47;85970.13;;;33.52;22.91
80682;BME280;70045;40.200;44.582;2023-08-01T09:15:16;85977.34;;;34.27;22.24
80682;BME280;70045;40.200;44.582;2023-08-01T09:17:49;85973.44;;;34.73;20.75
80682;BME280;70045;40.200;44.582;2023-08-01T09:20:14;85965.63;;;35.22;20.41
80682;BME280;70045;40.200;44.582;2023-08-01T09:22:44;85965.97;;;35.82;20.54
80682;BME280;70045;40.200;44.582;2023-08-01T09:25:09;85969.28;;;36.10;20.34
80682;BME280;70045;40.200;44.582;2023-08-01T09:27:38;85962.06;;;36.52;19.13
80682;BME280;70045;40.200;44.582;2023-08-01T09:30:12;85963.16;;;37.17;17.66
80682;BME280;70045;40.200;44.582;2023-08-01T09:32:37;85961.72;;;37.57;17.46
80682;BME280;70045;40.200;44.582;2023-08-01T09:35:03;85960.34;;;38.09;17.96
80682;BME280;70045;40.200;44.582;2023-08-01T09:37:43;85964.94;;;38.28;16.56
80682;BME280;70045;40.200;44.582;2023-08-01T09:40:09;85961.03;;;38.74;17.16
80682;BME280;70045;40.200;44.582;2023-08-01T09:42:42;85963.63;;;39.06;16.34
80682;BME280;70045;40.200;44.582;2023-08-01T09:45:15;85964.16;;;39.26;16.79
80682;BME280;70045;40.200;44.582;2023-08-01T09:47:48;85958.06;;;39.49;15.56
80682;BME280;70045;40.200;44.582;2023-08-01T09:50:20;85947.94;;;39.73;14.81
80682;BME280;70045;40.200;44.582;2023-08-01T09:52:46;85955.25;;;40.06;16.17
80682;BME280;70045;40.200;44.582;2023-08-01T09:55:12;85953.31;;;40.44;15.74
80682;BME280;70045;40.200;44.582;2023-08-01T09:57:37;85940.50;;;40.58;15.46
80682;BME280;70045;40.200;44.582;2023-08-01T10:00:09;85942.31;;;40.79;14.23
80682;BME280;70045;40.200;44.582;2023-08-01T10:02:35;85939.25;;;41.11;14.98
80682;BME280;70045;40.200;44.582;2023-08-01T10:05:02;85946.09;;;41.37;14.67
80682;BME280;70045;40.200;44.582;2023-08-01T10:07:30;85938.25;;;41.57;13.23
80682;BME280;70045;40.200;44.582;2023-08-01T10:09:58;85933.38;;;41.82;12.83
80682;BME280;70045;40.200;44.582;2023-08-01T10:12:27;85934.00;;;42.22;12.34
80682;BME280;70045;40.200;44.582;2023-08-01T10:14:55;85928.78;;;42.12;12.70
80682;BME280;70045;40.200;44.582;2023-08-01T10:17:22;85932.59;;;42.21;12.82
80682;BME280;70045;40.200;44.582;2023-08-01T10:19:49;85928.03;;;42.39;13.78
80682;BME280;70045;40.200;44.582;2023-08-01T10:22:15;85926.31;;;42.60;12.96
80682;BME280;70045;40.200;44.582;2023-08-01T10:24:43;85923.50;;;42.87;12.01
80682;BME280;70045;40.200;44.582;2023-08-01T10:27:34;85923.03;;;43.07;11.09
80682;BME280;70045;40.200;44.582;2023-08-01T10:30:01;85914.06;;;43.34;12.62
80682;BME280;70045;40.200;44.582;2023-08-01T10:32:35;85920.53;;;43.27;10.82
80682;BME280;70045;40.200;44.582;2023-08-01T10:35:04;85922.53;;;43.40;11.07
80682;BME280;70045;40.200;44.582;2023-08-01T10:37:41;85916.16;;;43.36;10.63
80682;BME280;70045;40.200;44.582;2023-08-01T10:40:07;85918.06;;;43.79;11.72
80682;BME280;70045;40.200;44.582;2023-08-01T10:42:40;85906.13;;;42.95;10.94
80682;BME280;70045;40.200;44.582;2023-08-01T10:45:23;85908.00;;;43.06;10.36
80682;BME280;70045;40.200;44.582;2023-08-01T10:47:49;85887.81;;;43.59;11.08
80682;BME280;70045;40.200;44.582;2023-08-01T10:50:16;85899.00;;;43.97;10.20
80682;BME280;70045;40.200;44.582;2023-08-01T10:52:42;85905.84;;;44.30;10.72
80682;BME280;70045;40.200;44.582;2023-08-01T10:55:08;85907.94;;;44.99;9.96
80682;BME280;70045;40.200;44.582;2023-08-01T10:57:39;85908.81;;;45.04;9.13
80682;BME280;70045;40.200;44.582;2023-08-01T11:00:05;85900.53;;;45.58;9.69
80682;BME280;70045;40.200;44.582;2023-08-01T11:02:31;85903.28;;;45.96;8.91
80682;BME280;70045;40.200;44.582;2023-08-01T11:05:02;85902.09;;;45.63;8.52
80682;BME280;70045;40.200;44.582;2023-08-01T11:07:28;85891.19;;;46.03;9.06
80682;BME280;70045;40.200;44.582;2023-08-01T11:12:39;85888.47;;;45.65;7.54
80682;BME280;70045;40.200;44.582;2023-08-01T11:15:07;85882.25;;;45.44;8.65
80682;BME280;70045;40.200;44.582;2023-08-01T11:17:33;85883.13;;;45.31;7.80
80682;BME280;70045;40.200;44.582;2023-08-01T11:20:06;85882.94;;;45.63;8.07
80682;BME280;70045;40.200;44.582;2023-08-01T11:22:31;85882.50;;;46.29;8.63
80682;BME280;70045;40.200;44.582;2023-08-01T11:24:57;85879.44;;;46.83;7.75
80682;BME280;70045;40.200;44.582;2023-08-01T11:27:24;85877.34;;;47.25;7.88
80682;BME280;70045;40.200;44.582;2023-08-01T11:29:49;85878.59;;;47.22;6.00
80682;BME280;70045;40.200;44.582;2023-08-01T11:32:18;85865.97;;;47.13;6.75
80682;BME280;70045;40.200;44.582;2023-08-01T11:34:43;85872.41;;;47.22;7.36
80682;BME280;70045;40.200;44.582;2023-08-01T11:37:10;85860.44;;;47.57;7.06
80682;BME280;70045;40.200;44.582;2023-08-01T11:39:36;85860.09;;;47.95;7.31
80682;BME280;70045;40.200;44.582;2023-08-01T11:42:01;85861.00;;;48.02;7.10
80682;BME280;70045;40.200;44.582;2023-08-01T11:44:29;85855.03;;;48.10;6.64
80682;BME280;70045;40.200;44.582;2023-08-01T11:46:56;85857.72;;;48.07;7.23
80682;BME280;70045;40.200;44.582;2023-08-01T11:49:22;85849.91;;;47.74;7.21
80682;BME280;70045;40.200;44.582;2023-08-01T11:51:47;85846.16;;;47.87;7.12
80682;BME280;70045;40.200;44.582;2023-08-01T11:54:13;85839.22;;;48.10;5.64
80682;BME280;70045;40.200;44.582;2023-08-01T11:56:42;85838.28;;;47.05;6.58
80682;BME280;70045;40.200;44.582;2023-08-01T11:59:15;85837.31;;;47.64;5.52
80682;BME280;70045;40.200;44.582;2023-08-01T12:01:46;85835.34;;;48.19;5.31
80682;BME280;70045;40.200;44.582;2023-08-01T12:04:11;85834.56;;;47.64;5.81
80682;BME280;70045;40.200;44.582;2023-08-01T12:06:37;85837.16;;;47.84;5.78
80682;BME280;70045;40.200;44.582;2023-08-01T12:09:21;85831.84;;;48.17;5.35
80682;BME280;70045;40.200;44.582;2023-08-01T12:11:46;85831.97;;;48.49;5.63
80682;BME280;70045;40.200;44.582;2023-08-01T12:14:23;85825.44;;;48.08;4.92
80682;BME280;70045;40.200;44.582;2023-08-01T12:16:49;85826.69;;;46.62;5.80
80682;BME280;70045;40.200;44.582;2023-08-01T12:19:18;85816.22;;;47.01;5.06
80682;BME280;70045;40.200;44.582;2023-08-01T12:21:44;85820.94;;;47.44;5.20
80682;BME280;70045;40.200;44.582;2023-08-01T12:24:09;85821.06;;;47.02;4.97
80682;BME280;70045;40.200;44.582;2023-08-01T12:26:35;85812.97;;;47.55;5.85
80682;BME280;70045;40.200;44.582;2023-08-01T12:29:00;85818.38;;;48.01;5.45
80682;BME280;70045;40.200;44.582;2023-08-01T12:31:29;85816.59;;;48.38;4.55
80682;BME280;70045;40.200;44.582;2023-08-01T12:33:54;85821.28;;;48.07;4.81
80682;BME280;70045;40.200;44.582;2023-08-01T12:36:20;85806.00;;;47.76;5.08
80682;BME280;70045;40.200;44.582;2023-08-01T12:38:46;85807.94;;;46.99;5.29
80682;BME280;70045;40.200;44.582;2023-08-01T12:41:11;85808.13;;;46.60;4.58
80682;BME280;70045;40.200;44.582;2023-08-01T12:43:39;85803.16;;;47.23;4.87
80682;BME280;70045;40.200;44.582;2023-08-01T12:46:05;85799.25;;;47.30;4.88
80682;BME280;70045;40.200;44.582;2023-08-01T12:48:30;85798.13;;;47.64;5.18
80682;BME280;70045;40.200;44.582;2023-08-01T12:50:56;85794.88;;;47.69;4.73
80682;BME280;70045;40.200;44.582;2023-08-01T12:53:22;85791.81;;;47.11;4.59